createdAt,value
2023-02-19T00:02:46.563Z,100253.38
2023-02-19T00:05:36.945Z,100247.59
2023-02-19T00:08:25.818Z,100236.09
2023-02-19T00:11:19.453Z,100238.97
2023-02-19T00:14:09.383Z,100242.00
2023-02-19T00:17:02.230Z,100238.97
2023-02-19T00:19:53.142Z,100246.31
2023-02-19T00:22:42.114Z,100227.84
2023-02-19T00:25:30.809Z,100227.84
2023-02-19T00:28:22.118Z,100217.91
2023-02-19T00:31:14.884Z,100226.19
2023-02-19T00:34:06.703Z,100222.84
2023-02-19T00:36:56.963Z,100223.69
2023-02-19T00:39:46.189Z,100226.16
2023-02-19T00:42:34.880Z,100224.91
2023-02-19T00:45:25.228Z,100217.09
2023-02-19T00:48:14.007Z,100219.34
2023-02-19T00:51:02.898Z,100211.34
2023-02-19T00:53:53.088Z,100205.16
2023-02-19T00:56:42.224Z,100209.69
2023-02-19T00:59:30.905Z,100202.72
2023-02-19T01:02:19.579Z,100211.78
2023-02-19T01:05:08.487Z,100201.88
2023-02-19T01:07:57.205Z,100198.63
2023-02-19T01:10:47.428Z,100198.63
2023-02-19T01:13:36.458Z,100198.19
2023-02-19T01:16:25.634Z,100194.47
2023-02-19T01:19:14.534Z,100183.19
2023-02-19T01:22:03.199Z,100180.50
2023-02-19T01:24:51.804Z,100169.84
2023-02-19T01:27:41.972Z,100169.03
2023-02-19T01:30:30.690Z,100165.34
2023-02-19T01:33:19.377Z,100157.94
2023-02-19T01:36:09.077Z,100144.38
2023-02-19T01:38:57.708Z,100141.50
2023-02-19T01:41:46.383Z,100140.06
2023-02-19T01:45:26.722Z,100132.88
2023-02-19T01:48:18.975Z,100134.34
2023-02-19T01:51:09.729Z,100133.31
2023-02-19T01:54:01.035Z,100135.34
2023-02-19T01:56:50.500Z,100129.19
2023-02-19T01:59:39.434Z,100124.28
2023-02-19T02:02:28.532Z,100122.22
2023-02-19T02:05:23.728Z,100117.91
2023-02-19T02:08:45.058Z,100115.03
2023-02-19T02:11:33.758Z,100113.38
2023-02-19T02:14:25.089Z,100111.75
2023-02-19T02:17:20.122Z,100105.59
2023-02-19T02:20:33.542Z,100107.44
2023-02-19T02:23:29.055Z,100095.53
2023-02-19T02:26:27.777Z,100100.03
2023-02-19T02:29:53.811Z,100098.41
2023-02-19T02:32:53.419Z,100103.53
2023-02-19T02:35:45.906Z,100100.44
2023-02-19T02:38:37.192Z,100076.25
2023-02-19T02:41:26.741Z,100076.25
2023-02-19T02:44:15.370Z,100079.09
2023-02-19T02:47:06.280Z,100067.63
2023-02-19T02:50:06.076Z,100072.13
2023-02-19T02:53:15.928Z,100067.22
2023-02-19T02:56:05.633Z,100061.03
2023-02-19T02:58:55.064Z,100046.28
2023-02-19T03:02:03.133Z,100044.22
2023-02-19T03:05:14.988Z,100040.53
2023-02-19T03:08:10.896Z,100043.38
2023-02-19T03:11:23.403Z,100044.00
2023-02-19T03:14:33.604Z,100034.75
2023-02-19T03:17:43.575Z,100028.22
2023-02-19T03:20:36.302Z,100029.25
2023-02-19T03:23:46.365Z,100023.47
2023-02-19T03:26:34.522Z,100015.47
2023-02-19T03:29:27.063Z,100020.41
2023-02-19T03:32:20.162Z,100015.91
2023-02-19T03:35:11.678Z,100019.16
2023-02-19T03:38:05.593Z,100015.47
2023-02-19T03:40:57.757Z,100005.00
2023-02-19T03:43:51.990Z,100017.91
2023-02-19T03:46:45.915Z,100009.31
2023-02-19T03:49:37.070Z,100008.09
2023-02-19T03:52:31.725Z,100001.72
2023-02-19T03:55:27.259Z,99999.25
2023-02-19T03:58:20.079Z,99998.84
2023-02-19T04:01:11.364Z,99994.13
2023-02-19T04:04:05.457Z,99985.09
2023-02-19T04:06:57.042Z,99978.13
2023-02-19T04:09:47.981Z,99975.66
2023-02-19T04:12:39.420Z,99978.13
2023-02-19T04:15:31.045Z,99973.81
2023-02-19T04:18:21.481Z,99963.75
2023-02-19T04:21:11.275Z,99962.09
2023-02-19T04:24:01.240Z,99969.88
2023-02-19T04:26:50.134Z,99969.88
2023-02-19T04:29:40.169Z,99952.66
2023-02-19T04:32:28.906Z,99974.19
2023-02-19T04:35:17.673Z,99969.50
2023-02-19T04:38:06.370Z,99943.22
2023-02-19T04:40:55.033Z,99948.16
2023-02-19T04:43:43.636Z,99954.72
2023-02-19T04:46:33.685Z,99958.84
2023-02-19T04:49:22.372Z,99942.00
2023-02-19T04:52:11.262Z,99950.41
2023-02-19T04:54:59.881Z,99960.66
2023-02-19T04:57:48.663Z,99962.72
2023-02-19T05:00:37.347Z,99970.72
2023-02-19T05:03:27.549Z,99948.16
2023-02-19T05:06:16.218Z,99951.44
2023-02-19T05:09:05.398Z,99958.44
2023-02-19T05:11:54.110Z,99977.28
2023-02-19T05:14:42.717Z,99971.53
2023-02-19T05:17:31.479Z,99983.88
2023-02-19T05:20:22.987Z,99986.13
2023-02-19T05:23:11.806Z,99980.78
2023-02-19T05:26:00.668Z,99974.44
2023-02-19T05:28:51.480Z,99976.50
2023-02-19T05:31:40.240Z,99978.13
2023-02-19T05:34:29.353Z,99976.88
2023-02-19T05:37:19.573Z,99967.88
2023-02-19T05:40:08.524Z,99979.78
2023-02-19T05:42:57.277Z,99972.19
2023-02-19T05:45:46.074Z,99965.41
2023-02-19T05:48:35.136Z,99967.66
2023-02-19T05:51:25.289Z,99966.63
2023-02-19T05:54:15.406Z,99976.06
2023-02-19T05:57:04.321Z,99977.09
2023-02-19T05:59:52.933Z,99995.16
2023-02-19T06:02:41.685Z,99990.84
2023-02-19T06:05:30.342Z,99982.03
2023-02-19T06:08:19.082Z,99985.09
2023-02-19T06:11:09.355Z,99986.53
2023-02-19T06:13:58.290Z,99991.06
2023-02-19T06:16:47.031Z,100005.19
2023-02-19T06:19:35.672Z,100006.44
2023-02-19T06:22:24.382Z,100013.84
2023-02-19T06:25:16.120Z,100013.84
2023-02-19T06:28:06.659Z,100017.13
2023-02-19T06:30:55.234Z,100012.19
2023-02-19T06:33:44.052Z,100022.44
2023-02-19T06:36:32.792Z,100019.16
2023-02-19T06:39:21.495Z,100024.50
2023-02-19T06:42:10.148Z,100030.66
2023-02-19T06:45:01.921Z,100025.31
2023-02-19T06:47:50.545Z,100039.69
2023-02-19T06:50:39.282Z,100035.19
2023-02-19T06:53:28.127Z,100034.75
2023-02-19T06:56:25.656Z,100042.94
2023-02-19T06:59:16.887Z,100041.72
2023-02-19T07:02:07.136Z,100047.47
2023-02-19T07:04:55.768Z,100055.28
2023-02-19T07:07:47.048Z,100058.16
2023-02-19T07:10:35.757Z,100058.75
2023-02-19T07:13:24.421Z,100078.66
2023-02-19T07:16:13.991Z,100074.34
2023-02-19T07:19:04.278Z,100079.50
2023-02-19T07:21:53.226Z,100084.84
2023-02-19T07:24:41.852Z,100090.38
2023-02-19T07:27:30.542Z,100101.44
2023-02-19T07:30:19.431Z,100113.56
2023-02-19T07:33:10.467Z,100124.22
2023-02-19T07:36:00.762Z,100143.50
2023-02-19T07:38:49.551Z,100143.72
2023-02-19T07:41:38.166Z,100149.47
2023-02-19T07:44:27.041Z,100154.19
2023-02-19T07:47:15.694Z,100159.13
2023-02-19T07:50:04.347Z,100174.31
2023-02-19T07:52:54.396Z,100181.69
2023-02-19T07:55:43.060Z,100190.28
2023-02-19T07:58:32.181Z,100194.00
2023-02-19T08:01:44.265Z,100198.97
2023-02-19T08:04:31.926Z,100204.50
2023-02-19T08:07:20.731Z,100218.88
2023-02-19T08:10:28.761Z,100226.66
2023-02-19T08:13:22.676Z,100223.59
2023-02-19T08:16:20.296Z,100232.69
2023-02-19T08:19:13.110Z,100237.00
2023-02-19T08:22:01.799Z,100242.97
2023-02-19T08:24:50.529Z,100259.81
2023-02-19T08:27:40.591Z,100276.59
2023-02-19T08:30:30.010Z,100288.94
2023-02-19T08:33:21.237Z,100301.34
2023-02-19T08:36:12.107Z,100309.50
2023-02-19T08:39:00.825Z,100311.09
2023-02-19T08:41:49.523Z,100310.66
2023-02-19T08:44:39.950Z,100326.66
2023-02-19T08:47:28.881Z,100342.44
2023-02-19T08:50:17.540Z,100347.97
2023-02-19T08:53:07.179Z,100359.94
2023-02-19T08:55:55.778Z,100378.03
2023-02-19T08:58:45.205Z,100388.75
2023-02-19T09:01:35.540Z,100397.13
2023-02-19T09:04:24.255Z,100404.94
2023-02-19T09:07:14.064Z,100418.94
2023-02-19T09:10:03.008Z,100423.03
2023-02-19T09:12:51.720Z,100422.66
2023-02-19T09:15:40.402Z,100434.97
2023-02-19T09:18:30.506Z,100451.00
2023-02-19T09:21:19.208Z,100451.19
2023-02-19T09:24:10.482Z,100453.28
2023-02-19T09:26:59.608Z,100470.84
2023-02-19T09:29:48.506Z,100478.72
2023-02-19T09:32:37.587Z,100483.69
2023-02-19T09:35:27.815Z,100493.97
2023-02-19T09:38:16.500Z,100512.13
2023-02-19T09:41:08.921Z,100527.16
2023-02-19T09:43:57.987Z,100526.94
2023-02-19T09:46:49.356Z,100533.50
2023-02-19T09:49:40.463Z,100526.69
2023-02-19T09:52:34.879Z,100536.00
2023-02-19T09:55:31.123Z,100545.25
2023-02-19T09:58:27.066Z,100546.28
2023-02-19T10:01:16.355Z,100550.81
2023-02-19T10:04:06.368Z,100552.25
2023-02-19T10:06:59.514Z,100552.06
2023-02-19T10:09:53.962Z,100556.78
2023-02-19T10:12:47.861Z,100567.31
2023-02-19T10:15:40.047Z,100573.06
2023-02-19T10:18:32.852Z,100580.59
2023-02-19T10:21:24.980Z,100598.25
2023-02-19T10:24:19.650Z,100596.06
2023-02-19T10:27:16.566Z,100596.50
2023-02-19T10:30:07.445Z,100597.00
2023-02-19T10:33:03.599Z,100598.81
2023-02-19T10:35:57.635Z,100614.38
2023-02-19T10:38:50.908Z,100608.00
2023-02-19T10:41:44.312Z,100619.44
2023-02-19T10:44:38.204Z,100621.56
2023-02-19T10:47:28.096Z,100630.31
2023-02-19T10:50:23.365Z,100637.19
2023-02-19T10:53:24.090Z,100636.63
2023-02-19T10:56:15.494Z,100638.44
2023-02-19T10:59:27.688Z,100647.66
2023-02-19T11:02:20.825Z,100640.13
2023-02-19T11:05:19.913Z,100653.06
2023-02-19T11:08:23.072Z,100655.84
2023-02-19T11:11:12.174Z,100659.78
2023-02-19T11:14:03.037Z,100668.31
2023-02-19T11:16:53.665Z,100669.91
2023-02-19T11:19:48.583Z,100672.88
2023-02-19T11:22:40.251Z,100680.78
2023-02-19T11:25:29.266Z,100684.91
2023-02-19T11:28:30.280Z,100684.47
2023-02-19T11:31:25.739Z,100692.00
2023-02-19T11:34:31.146Z,100697.34
2023-02-19T11:37:22.293Z,100690.75
2023-02-19T11:40:14.050Z,100696.81
2023-02-19T11:43:09.080Z,100688.81
2023-02-19T11:46:05.180Z,100691.31
2023-02-19T11:48:55.897Z,100700.22
2023-02-19T11:52:18.260Z,100705.97
2023-02-19T11:55:14.948Z,100700.63
2023-02-19T11:58:14.143Z,100708.06
2023-02-19T12:01:09.870Z,100712.16
2023-02-19T12:04:12.278Z,100718.94
2023-02-19T12:07:06.465Z,100719.94
2023-02-19T12:10:05.413Z,100738.47
2023-02-19T12:13:03.634Z,100743.09
2023-02-19T12:16:02.083Z,100750.75
2023-02-19T12:19:12.217Z,100744.69
2023-02-19T12:22:19.678Z,100744.84
2023-02-19T12:25:34.454Z,100747.38
2023-02-19T12:28:38.968Z,100747.84
2023-02-19T12:31:49.168Z,100755.28
2023-02-19T12:34:48.582Z,100750.38
2023-02-19T12:37:44.852Z,100742.59
2023-02-19T12:40:40.477Z,100743.38
2023-02-19T12:43:32.283Z,100734.81
2023-02-19T12:46:24.632Z,100728.66
2023-02-19T12:49:15.524Z,100724.69
2023-02-19T12:52:08.914Z,100734.41
2023-02-19T12:55:15.237Z,100728.69
2023-02-19T12:58:06.316Z,100735.53
2023-02-19T13:00:59.977Z,100733.94
2023-02-19T13:03:53.807Z,100737.69
2023-02-19T13:06:45.253Z,100732.19
2023-02-19T13:09:37.985Z,100745.66
2023-02-19T13:12:28.031Z,100759.13
2023-02-19T13:15:19.315Z,100756.78
2023-02-19T13:18:15.421Z,100768.78
2023-02-19T13:21:06.157Z,100768.69
2023-02-19T13:23:59.689Z,100772.56
2023-02-19T13:27:05.886Z,100761.38
2023-02-19T13:30:04.774Z,100764.78
2023-02-19T13:33:00.623Z,100757.31
2023-02-19T13:36:13.109Z,100768.72
2023-02-19T13:39:02.009Z,100783.25
2023-02-19T13:41:55.205Z,100768.16
2023-02-19T13:44:52.432Z,100782.16
2023-02-19T13:47:50.708Z,100789.81
2023-02-19T13:50:40.146Z,100790.34
2023-02-19T13:53:57.573Z,100782.78
2023-02-19T13:56:46.229Z,100776.09
2023-02-19T13:59:38.881Z,100779.88
2023-02-19T14:02:35.178Z,100787.66
2023-02-19T14:06:00.790Z,100781.94
2023-02-19T14:08:55.984Z,100778.19
2023-02-19T14:12:05.266Z,100789.09
2023-02-19T14:14:54.730Z,100787.69
2023-02-19T14:17:45.773Z,100793.00
2023-02-19T14:20:46.316Z,100798.38
2023-02-19T14:23:35.175Z,100804.19
2023-02-19T14:26:25.774Z,100794.31
2023-02-19T14:29:16.528Z,100802.97
2023-02-19T14:32:07.270Z,100805.47
2023-02-19T14:34:58.073Z,100801.38
2023-02-19T14:37:47.679Z,100804.47
2023-02-19T14:40:41.540Z,100808.00
2023-02-19T14:43:31.792Z,100815.84
2023-02-19T14:46:26.573Z,100823.50
2023-02-19T14:49:17.680Z,100821.00
2023-02-19T14:52:09.027Z,100817.22
2023-02-19T14:55:01.227Z,100820.31
2023-02-19T14:57:50.965Z,100835.56
2023-02-19T15:00:42.951Z,100843.00
2023-02-19T15:03:34.552Z,100842.56
2023-02-19T15:06:24.397Z,100848.72
2023-02-19T15:09:14.504Z,100852.03
2023-02-19T15:12:04.073Z,100854.47
2023-02-19T15:14:55.340Z,100855.31
2023-02-19T15:17:45.466Z,100857.69
2023-02-19T15:20:36.024Z,100854.31
2023-02-19T15:23:25.745Z,100855.34
2023-02-19T15:26:24.527Z,100859.50
2023-02-19T15:29:15.228Z,100860.91
2023-02-19T15:32:04.153Z,100856.09
2023-02-19T15:34:58.893Z,100862.41
2023-02-19T15:37:47.752Z,100861.94
2023-02-19T15:40:37.130Z,100860.19
2023-02-19T15:43:29.645Z,100875.84
2023-02-19T15:46:22.376Z,100875.84
2023-02-19T15:49:14.610Z,100883.47
2023-02-19T15:52:07.566Z,100891.44
2023-02-19T15:54:59.540Z,100895.59
2023-02-19T15:57:53.556Z,100889.22
2023-02-19T16:00:44.810Z,100887.69
2023-02-19T16:03:34.403Z,100887.56
2023-02-19T16:06:25.027Z,100886.94
2023-02-19T16:09:22.391Z,100891.66
2023-02-19T16:12:22.251Z,100886.69
2023-02-19T16:15:15.469Z,100884.09
2023-02-19T16:18:04.617Z,100889.09
2023-02-19T16:20:53.653Z,100880.28
2023-02-19T16:23:43.991Z,100894.22
2023-02-19T16:26:41.630Z,100891.94
2023-02-19T16:29:32.764Z,100890.66
2023-02-19T16:32:21.777Z,100890.13
2023-02-19T16:35:36.590Z,100895.88
2023-02-19T16:38:25.508Z,100917.00
2023-02-19T16:41:16.421Z,100926.41
2023-02-19T16:44:32.536Z,100935.06
2023-02-19T16:47:32.849Z,100946.09
2023-02-19T16:50:24.042Z,100950.44
2023-02-19T16:53:19.781Z,100957.78
2023-02-19T16:56:10.428Z,100960.47
2023-02-19T16:58:59.290Z,100970.50
2023-02-19T17:01:49.687Z,100975.59
2023-02-19T17:04:38.619Z,100982.13
2023-02-19T17:07:28.019Z,100985.69
2023-02-19T17:10:19.996Z,100996.94
2023-02-19T17:13:08.954Z,101005.59
2023-02-19T17:15:57.816Z,101004.47
2023-02-19T17:18:47.917Z,101008.25
2023-02-19T17:21:36.609Z,101005.09
2023-02-19T17:24:25.296Z,101007.44
2023-02-19T17:27:14.250Z,101018.13
2023-02-19T17:30:03.179Z,101013.88
2023-02-19T17:32:52.436Z,101026.22
2023-02-19T17:35:44.825Z,101029.84
2023-02-19T17:38:33.657Z,101028.16
2023-02-19T17:41:22.370Z,101026.94
2023-02-19T17:44:11.451Z,101035.25
2023-02-19T17:47:00.129Z,101042.53
2023-02-19T17:49:48.749Z,101045.28
2023-02-19T17:52:38.808Z,101047.09
2023-02-19T17:55:27.479Z,101054.31
2023-02-19T17:58:16.244Z,101063.44
2023-02-19T18:01:05.042Z,101070.06
2023-02-19T18:03:53.872Z,101068.16
2023-02-19T18:06:42.877Z,101054.81
2023-02-19T18:09:32.925Z,101054.66
2023-02-19T18:12:21.711Z,101062.22
2023-02-19T18:15:13.184Z,101062.28
2023-02-19T18:18:02.289Z,101068.78
2023-02-19T18:20:51.083Z,101071.72
2023-02-19T18:23:40.047Z,101064.53
2023-02-19T18:26:30.163Z,101065.00
2023-02-19T18:29:19.919Z,101074.97
2023-02-19T18:32:08.717Z,101080.69
2023-02-19T18:35:00.543Z,101072.78
2023-02-19T18:37:52.628Z,101087.63
2023-02-19T18:40:44.795Z,101085.53
2023-02-19T18:43:37.306Z,101090.59
2023-02-19T18:46:26.156Z,101093.69
2023-02-19T18:49:14.966Z,101090.28
2023-02-19T18:52:03.610Z,101097.72
2023-02-19T18:54:53.510Z,101095.19
2023-02-19T18:57:42.158Z,101095.50
2023-02-19T19:00:32.135Z,101097.97
2023-02-19T19:03:20.738Z,101093.41
2023-02-19T19:06:09.538Z,101097.91
2023-02-19T19:08:58.637Z,101087.19
2023-02-19T19:11:47.622Z,101096.25
2023-02-19T19:14:36.253Z,101093.06
2023-02-19T19:17:26.283Z,101093.56
2023-02-19T19:20:19.814Z,101104.38
2023-02-19T19:23:08.655Z,101110.06
2023-02-19T19:25:57.412Z,101110.88
2023-02-19T19:28:46.581Z,101102.53
2023-02-19T19:31:36.501Z,101104.56
2023-02-19T19:34:26.648Z,101092.31
2023-02-19T19:37:15.327Z,101097.28
2023-02-19T19:40:05.062Z,101099.22
2023-02-19T19:42:54.371Z,101097.56
2023-02-19T19:45:43.112Z,101101.69
2023-02-19T19:48:33.160Z,101109.91
2023-02-19T19:51:23.437Z,101111.84
2023-02-19T19:54:13.190Z,101107.97
2023-02-19T19:57:02.030Z,101109.16
2023-02-19T19:59:51.161Z,101112.94
2023-02-19T20:02:40.078Z,101110.47
2023-02-19T20:05:28.989Z,101106.06
2023-02-19T20:08:19.513Z,101109.38
2023-02-19T20:11:08.394Z,101107.72
2023-02-19T20:13:57.427Z,101106.78
2023-02-19T20:16:47.500Z,101103.94
2023-02-19T20:19:36.191Z,101106.50
2023-02-19T20:22:25.217Z,101104.66
2023-02-19T20:25:16.075Z,101106.69
2023-02-19T20:28:04.833Z,101103.91
2023-02-19T20:30:53.595Z,101113.41
2023-02-19T20:33:42.249Z,101099.72
2023-02-19T20:36:32.292Z,101096.81
2023-02-19T20:39:22.207Z,101088.25
2023-02-19T20:42:16.553Z,101089.25
2023-02-19T20:45:05.935Z,101092.41
2023-02-19T20:47:54.767Z,101101.81
2023-02-19T20:50:43.400Z,101103.28
2023-02-19T20:53:32.929Z,101106.47
2023-02-19T20:56:21.702Z,101119.31
2023-02-19T20:59:12.847Z,101127.97
2023-02-19T21:02:08.077Z,101126.22
2023-02-19T21:04:57.443Z,101135.25
2023-02-19T21:07:46.153Z,101142.63
2023-02-19T21:10:34.790Z,101146.31
2023-02-19T21:13:23.601Z,101147.13
2023-02-19T21:16:13.928Z,101153.03
2023-02-19T21:19:02.851Z,101159.47
2023-02-19T21:21:51.490Z,101166.28
2023-02-19T21:24:40.112Z,101161.13
2023-02-19T21:27:28.749Z,101164.41
2023-02-19T21:30:17.530Z,101159.13
2023-02-19T21:33:07.525Z,101155.66
2023-02-19T21:35:57.514Z,101168.16
2023-02-19T21:38:46.099Z,101171.69
2023-02-19T21:41:34.861Z,101181.41
2023-02-19T21:44:23.555Z,101177.25
2023-02-19T21:47:12.662Z,101175.72
2023-02-19T21:50:02.749Z,101172.88
2023-02-19T21:52:51.621Z,101174.41
2023-02-19T21:55:42.940Z,101173.94
2023-02-19T21:58:38.634Z,101173.00
2023-02-19T22:01:29.048Z,101175.72
2023-02-19T22:04:19.787Z,101168.34
2023-02-19T22:07:09.775Z,101167.06
2023-02-19T22:09:58.650Z,101160.88
2023-02-19T22:12:47.384Z,101162.41
2023-02-19T22:15:36.124Z,101164.06
2023-02-19T22:18:24.738Z,101158.44
2023-02-19T22:21:13.345Z,101157.81
2023-02-19T22:24:04.485Z,101145.09
2023-02-19T22:26:57.044Z,101144.41
2023-02-19T22:29:45.776Z,101138.50
2023-02-19T22:32:34.551Z,101137.84
2023-02-19T22:35:23.384Z,101133.34
2023-02-19T22:38:12.028Z,101140.88
2023-02-19T22:41:02.080Z,101137.72
2023-02-19T22:43:51.355Z,101133.25
2023-02-19T22:46:40.001Z,101133.72
2023-02-19T22:49:28.747Z,101135.72
2023-02-19T22:52:17.470Z,101137.09
2023-02-19T22:55:06.573Z,101139.75
2023-02-19T22:57:56.569Z,101128.72
2023-02-19T23:00:45.229Z,101123.09
2023-02-19T23:03:33.953Z,101123.75
2023-02-19T23:06:24.698Z,101114.72
2023-02-19T23:09:18.556Z,101111.03
2023-02-19T23:12:09.209Z,101114.44
2023-02-19T23:14:59.297Z,101101.75
2023-02-19T23:17:47.931Z,101107.34
2023-02-19T23:20:36.670Z,101102.38
2023-02-19T23:23:25.407Z,101094.38
2023-02-19T23:26:15.555Z,101095.88
2023-02-19T23:29:05.186Z,101089.69
2023-02-19T23:31:55.541Z,101089.31
2023-02-19T23:34:44.150Z,101096.69
2023-02-19T23:37:33.145Z,101096.56
2023-02-19T23:40:21.789Z,101093.44
2023-02-19T23:43:10.391Z,101094.09
2023-02-19T23:45:59.105Z,101087.09
2023-02-19T23:48:49.078Z,101081.41
2023-02-19T23:51:37.727Z,101068.13
2023-02-19T23:54:26.389Z,101059.47
2023-02-19T23:57:15.093Z,101050.59
